Time;durP1;ratioP1;P1;durP2;ratioP2;P2;SDS_P1;SDS_P2;PMS_P1;PMS_P2;Temp;Humidity;BMP_temperature;BMP_pressure;BME280_temperature;BME280_humidity;BME280_pressure;Samples;Min_cycle;Max_cycle;Signal;HPM_P1;HPM_P2
2023/08/31 00:00:51;;;;;;;3.13;2.00;;;;;;;13.19;62.71;99571.34;4957863;28;20105;-48
2023/08/31 00:03:19;;;;;;;4.72;2.42;;;;;;;13.16;63.63;99576.59;4956238;28;20059;-52
2023/08/31 00:05:46;;;;;;;5.40;2.10;;;;;;;13.15;63.58;99567.09;4960911;28;20055;-49
2023/08/31 00:08:13;;;;;;;7.85;2.47;;;;;;;13.13;63.48;99568.91;4964406;28;20054;-50
2023/08/31 00:10:40;;;;;;;3.88;2.20;;;;;;;13.10;63.43;99560.25;4963010;28;20530;-49
2023/08/31 00:13:07;;;;;;;5.85;2.40;;;;;;;13.09;63.21;99558.56;4964680;28;20057;-49
2023/08/31 00:15:35;;;;;;;4.85;2.00;;;;;;;13.07;63.45;99552.50;4964783;28;20078;-49
2023/08/31 00:18:04;;;;;;;2.95;2.53;;;;;;;13.07;64.60;99555.13;4962359;28;20057;-46
2023/08/31 00:20:31;;;;;;;5.25;2.03;;;;;;;13.07;63.89;99549.91;4961721;28;20125;-48
2023/08/31 00:22:58;;;;;;;6.50;2.53;;;;;;;13.08;63.82;99548.19;4969568;28;20080;-47
2023/08/31 00:25:25;;;;;;;6.72;2.50;;;;;;;13.08;63.79;99546.41;4972773;28;20133;-48
2023/08/31 00:27:53;;;;;;;5.68;2.58;;;;;;;13.09;64.23;99553.34;4972325;28;20553;-48
2023/08/31 00:30:20;;;;;;;3.53;2.22;;;;;;;13.09;64.32;99553.34;4972921;28;20050;-47
2023/08/31 00:32:47;;;;;;;7.18;2.60;;;;;;;13.09;64.29;99552.50;4967624;28;20481;-49
2023/08/31 00:35:14;;;;;;;6.00;2.83;;;;;;;13.07;64.85;99547.31;4968497;28;20495;-47
2023/08/31 00:37:40;;;;;;;6.43;2.65;;;;;;;13.06;64.27;99540.41;4973395;28;20047;-45
2023/08/31 00:40:09;;;;;;;3.38;2.33;;;;;;;13.06;64.66;99547.34;4973599;28;20485;-47
2023/08/31 00:42:37;;;;;;;5.35;2.40;;;;;;;13.04;64.05;99543.94;4973069;28;20042;-47
2023/08/31 00:45:05;;;;;;;7.85;2.45;;;;;;;13.02;64.85;99541.38;4977403;28;20051;-49
2023/08/31 00:47:32;;;;;;;5.00;2.65;;;;;;;13.03;64.22;99540.47;4963401;28;20047;-48
2023/08/31 00:50:00;;;;;;;5.18;2.58;;;;;;;13.03;64.15;99550.03;4965489;28;20055;-46
2023/08/31 00:52:27;;;;;;;5.05;2.35;;;;;;;13.01;64.07;99544.88;4975637;28;20050;-47
2023/08/31 00:54:54;;;;;;;4.15;1.75;;;;;;;13.00;63.84;99537.09;4967292;28;20058;-52
2023/08/31 00:57:20;;;;;;;4.57;2.50;;;;;;;12.98;63.88;99544.94;4978295;28;20042;-46
2023/08/31 00:59:47;;;;;;;5.53;3.03;;;;;;;12.97;64.12;99538.03;4969721;28;20054;-49
2023/08/31 01:02:21;;;;;;;8.43;2.58;;;;;;;12.98;64.03;99539.72;4971456;28;20046;-49
2023/08/31 01:05:03;;;;;;;7.25;2.53;;;;;;;12.96;65.13;99531.09;4969986;28;20086;-49
2023/08/31 01:12:55;;;;;;;7.22;1.40;;;;;;;12.91;65.01;99527.75;5045560;27;20405;-50
2023/08/31 01:15:22;;;;;;;4.63;1.85;;;;;;;12.91;65.23;99525.13;5043683;28;20098;-48
2023/08/31 01:17:52;;;;;;;7.97;1.77;;;;;;;12.93;64.27;99525.94;5045525;28;20049;-49
2023/08/31 01:20:31;;;;;;;6.65;1.85;;;;;;;12.90;64.60;99531.22;5042372;28;20044;-48
2023/08/31 01:25:36;;;;;;;5.03;3.35;;;;;;;12.89;65.28;99521.69;5090390;27;20413;-48
2023/08/31 01:28:04;;;;;;;5.25;3.40;;;;;;;12.87;64.74;99526.94;5077585;28;20044;-48
2023/08/31 01:30:31;;;;;;;6.35;2.65;;;;;;;12.84;64.33;99522.66;5081060;28;20055;-49
2023/08/31 01:32:58;;;;;;;7.50;3.00;;;;;;;12.82;65.28;99532.25;5078631;28;20290;-47
2023/08/31 01:35:26;;;;;;;4.75;2.45;;;;;;;12.80;64.71;99531.41;5072834;28;20060;-46
2023/08/31 01:37:59;;;;;;;5.95;3.28;;;;;;;12.77;64.84;99531.47;5078691;28;20098;-47
2023/08/31 01:43:10;;;;;;;8.65;1.60;;;;;;;12.74;64.93;99541.94;5121807;27;20399;-48
2023/08/31 01:45:38;;;;;;;3.55;1.70;;;;;;;12.69;64.56;99538.56;5062566;28;20048;-46
2023/08/31 01:48:05;;;;;;;4.20;1.42;;;;;;;12.67;65.02;99540.34;5055256;28;20140;-49
2023/08/31 01:50:32;;;;;;;3.03;1.55;;;;;;;12.66;65.98;99541.25;5057164;28;20044;-45
2023/08/31 01:52:59;;;;;;;5.93;1.73;;;;;;;12.62;65.48;99540.44;5064120;28;20059;-48
2023/08/31 01:55:25;;;;;;;5.35;1.45;;;;;;;12.61;65.57;99541.31;5095769;28;20067;-47
2023/08/31 01:57:52;;;;;;;7.18;2.30;;;;;;;12.59;64.96;99538.75;5090139;28;20596;-47
2023/08/31 02:00:20;;;;;;;5.47;1.77;;;;;;;12.59;65.95;99538.75;5077137;28;20447;-49
2023/08/31 02:02:47;;;;;;;7.78;2.80;;;;;;;12.57;65.13;99544.88;5081695;28;20060;-48
2023/08/31 02:05:14;;;;;;;3.47;1.48;;;;;;;12.53;64.93;99533.66;5079046;28;20624;-47
2023/08/31 02:07:41;;;;;;;6.13;1.77;;;;;;;12.51;65.95;99540.66;5081973;28;20051;-47
2023/08/31 02:10:08;;;;;;;5.25;2.40;;;;;;;12.50;65.12;99538.91;5079712;28;20056;-51
2023/08/31 02:12:36;;;;;;;7.65;2.30;;;;;;;12.49;65.54;99541.56;5081669;28;20037;-49
2023/08/31 02:15:05;;;;;;;5.30;2.00;;;;;;;12.47;65.29;99539.00;5079002;28;20052;-46
2023/08/31 02:17:33;;;;;;;6.50;2.17;;;;;;;12.45;65.94;99535.56;5082275;28;20160;-48
2023/08/31 02:20:01;;;;;;;6.13;1.92;;;;;;;12.44;66.01;99531.25;5080924;28;20612;-45
2023/08/31 02:22:29;;;;;;;4.68;1.55;;;;;;;12.42;65.81;99535.59;5079593;28;20047;-48
2023/08/31 02:24:56;;;;;;;3.92;1.80;;;;;;;12.40;65.50;99527.00;5080661;28;20048;-44
2023/08/31 02:27:23;;;;;;;8.70;2.10;;;;;;;12.34;65.58;99528.81;5081599;28;20040;-49
2023/08/31 02:29:49;;;;;;;5.40;2.03;;;;;;;12.32;65.21;99524.53;5081402;28;20044;-48
2023/08/31 02:32:16;;;;;;;5.15;2.28;;;;;;;12.31;66.21;99528.88;5078448;28;20055;-47
2023/08/31 02:34:43;;;;;;;7.90;1.80;;;;;;;12.29;66.24;99525.44;5081561;28;20485;-46
2023/08/31 02:37:10;;;;;;;4.88;2.05;;;;;;;12.29;66.52;99535.00;5081014;28;20385;-45
2023/08/31 02:39:36;;;;;;;5.90;2.03;;;;;;;12.27;66.08;99532.44;5082885;28;20051;-45
2023/08/31 02:42:05;;;;;;;4.40;1.92;;;;;;;12.25;65.52;99534.19;5079946;28;20063;-49
2023/08/31 02:44:32;;;;;;;7.93;2.00;;;;;;;12.24;65.49;99537.66;5080192;28;20139;-51
2023/08/31 02:46:58;;;;;;;6.10;2.33;;;;;;;12.24;65.37;99542.00;5080072;28;20065;-49
2023/08/31 02:49:25;;;;;;;6.95;2.25;;;;;;;12.21;65.45;99533.38;5080285;28;20048;-49
2023/08/31 02:51:51;;;;;;;5.88;2.42;;;;;;;12.20;65.96;99536.00;5077910;28;20036;-49
2023/08/31 02:54:19;;;;;;;8.35;2.10;;;;;;;12.19;66.27;99529.09;5065946;28;20055;-46
2023/08/31 02:56:46;;;;;;;4.88;2.13;;;;;;;12.18;65.52;99532.56;5063984;28;20047;-46
2023/08/31 02:59:13;;;;;;;5.57;2.13;;;;;;;12.16;65.55;99530.00;5060508;28;20056;-44
2023/08/31 03:01:39;;;;;;;6.82;2.13;;;;;;;12.16;66.62;99534.34;5066549;28;20098;-46
2023/08/31 03:04:06;;;;;;;5.30;1.88;;;;;;;12.12;66.14;99532.69;5064181;28;20500;-45
2023/08/31 03:06:33;;;;;;;5.47;1.83;;;;;;;12.11;66.44;99530.97;5059152;28;20106;-48
2023/08/31 03:09:02;;;;;;;7.78;2.22;;;;;;;12.07;65.28;99525.84;5063663;28;20593;-47
2023/08/31 03:11:30;;;;;;;7.63;2.83;;;;;;;12.06;65.80;99529.31;5066966;28;20103;-44
2023/08/31 03:13:57;;;;;;;6.45;2.55;;;;;;;12.04;65.53;99530.19;5064138;28;20040;-49
2023/08/31 03:16:23;;;;;;;7.13;2.40;;;;;;;12.01;65.64;99525.91;5067183;28;20450;-47
2023/08/31 03:18:50;;;;;;;4.60;2.35;;;;;;;12.00;66.56;99523.34;5066165;28;20102;-48
2023/08/31 03:21:17;;;;;;;6.95;2.63;;;;;;;11.97;65.90;99524.25;5067310;28;20055;-47
2023/08/31 03:23:43;;;;;;;7.35;2.63;;;;;;;11.95;66.48;99520.81;5067223;28;20040;-49
2023/08/31 03:26:10;;;;;;;5.50;2.20;;;;;;;11.92;65.72;99520.88;5067178;28;20044;-46
2023/08/31 03:28:38;;;;;;;4.38;2.10;;;;;;;11.89;66.40;99520.94;5067823;28;20040;-49
2023/08/31 03:31:05;;;;;;;5.78;2.42;;;;;;;11.85;66.16;99514.09;5068144;28;20071;-46
2023/08/31 03:33:32;;;;;;;7.22;2.53;;;;;;;11.83;66.97;99520.13;5067015;28;20531;-47
2023/08/31 03:36:02;;;;;;;5.18;2.35;;;;;;;11.80;66.27;99512.44;5067007;28;20115;-46
2023/08/31 03:38:29;;;;;;;6.40;2.33;;;;;;;11.77;65.84;99515.06;5066375;28;20045;-46
2023/08/31 03:40:55;;;;;;;6.20;2.38;;;;;;;11.77;66.55;99504.69;5066336;28;20129;-44
2023/08/31 03:43:22;;;;;;;4.57;2.35;;;;;;;11.76;66.33;99507.31;5067789;28;20044;-45
2023/08/31 03:45:55;;;;;;;7.55;2.80;;;;;;;11.76;67.02;99515.09;5066968;28;20048;-46
2023/08/31 03:48:23;;;;;;;8.05;2.72;;;;;;;11.75;66.02;99505.59;5072313;28;20081;-45
2023/08/31 03:50:51;;;;;;;7.68;3.03;;;;;;;11.73;66.57;99505.63;5067268;28;20048;-46
2023/08/31 03:53:17;;;;;;;4.78;2.55;;;;;;;11.71;66.07;99502.19;5067542;28;20657;-46
2023/08/31 03:55:44;;;;;;;12.80;2.58;;;;;;;11.69;66.83;99498.78;5063566;28;20477;-47
2023/08/31 03:58:11;;;;;;;7.00;2.60;;;;;;;11.69;66.94;99509.16;5062847;28;20056;-47
2023/08/31 04:00:38;;;;;;;5.93;2.55;;;;;;;11.66;66.79;99501.41;5062842;28;20053;-46
2023/08/31 04:03:05;;;;;;;7.35;2.80;;;;;;;11.67;65.96;99505.72;5061075;28;20048;-45
2023/08/31 04:05:33;;;;;;;9.15;2.85;;;;;;;11.66;66.71;99511.78;5061727;28;20455;-46
2023/08/31 04:08:00;;;;;;;11.38;2.80;;;;;;;11.65;66.38;99508.31;5063924;28;20136;-47
2023/08/31 04:10:29;;;;;;;8.68;2.92;;;;;;;11.65;66.89;99517.84;5058457;28;20549;-45
2023/08/31 04:12:56;;;;;;;6.97;2.40;;;;;;;11.65;66.17;99516.09;5062877;28;20726;-45
2023/08/31 04:15:22;;;;;;;5.93;2.80;;;;;;;11.66;66.32;99514.38;5061660;28;20053;-46
2023/08/31 04:17:49;;;;;;;7.93;3.30;;;;;;;11.68;67.54;99512.59;5064616;28;20397;-49
2023/08/31 04:20:17;;;;;;;7.80;3.05;;;;;;;11.68;66.64;99517.78;5062601;28;20064;-47
2023/08/31 04:22:44;;;;;;;6.75;2.80;;;;;;;11.69;66.53;99509.16;5062371;28;20044;-47
2023/08/31 04:25:11;;;;;;;6.57;2.75;;;;;;;11.72;67.30;99508.22;5065572;28;20052;-47
2023/08/31 04:27:39;;;;;;;6.50;3.25;;;;;;;11.70;66.50;99514.31;5065470;28;20054;-48
2023/08/31 04:30:07;;;;;;;6.90;3.30;;;;;;;11.73;67.00;99521.19;5065548;28;20055;-47
2023/08/31 04:32:35;;;;;;;10.18;3.35;;;;;;;11.73;67.44;99528.97;5064118;28;20044;-44
2023/08/31 04:35:05;;;;;;;7.70;3.50;;;;;;;11.74;67.66;99529.81;5066697;28;20089;-46
2023/08/31 04:37:33;;;;;;;7.93;2.75;;;;;;;11.76;67.87;99531.50;5062329;28;20040;-46
2023/08/31 04:39:59;;;;;;;10.52;3.17;;;;;;;11.75;66.68;99534.97;5062181;28;20056;-50
2023/08/31 04:42:26;;;;;;;8.70;3.47;;;;;;;11.75;67.70;99537.56;5062423;28;20504;-44
2023/08/31 04:44:53;;;;;;;7.97;3.05;;;;;;;11.74;67.46;99528.06;5065044;28;20055;-47
2023/08/31 04:47:19;;;;;;;8.27;2.97;;;;;;;11.75;68.08;99534.13;5063210;28;20076;-48
2023/08/31 04:49:46;;;;;;;10.20;3.22;;;;;;;11.75;66.96;99539.31;5066230;28;20052;-45
2023/08/31 04:52:13;;;;;;;7.07;3.42;;;;;;;11.74;66.96;99540.19;5064287;28;20046;-47
2023/08/31 04:54:39;;;;;;;5.85;3.28;;;;;;;11.73;67.64;99541.06;5063862;28;20048;-48
2023/08/31 04:57:07;;;;;;;7.80;3.03;;;;;;;11.72;67.65;99537.59;5064035;28;20053;-44
2023/08/31 04:59:34;;;;;;;6.85;3.03;;;;;;;11.69;68.11;99532.50;5064537;28;20052;-49
2023/08/31 05:02:00;;;;;;;7.18;2.90;;;;;;;11.68;67.87;99541.13;5059682;28;20044;-45
2023/08/31 05:04:28;;;;;;;6.85;2.78;;;;;;;11.64;67.90;99531.69;5060827;28;20654;-45
2023/08/31 05:06:55;;;;;;;7.22;3.20;;;;;;;11.61;67.08;99531.72;5064638;28;20119;-48
2023/08/31 05:09:24;;;;;;;10.38;3.00;;;;;;;11.56;67.67;99530.06;5062451;28;21270;-47
2023/08/31 05:11:51;;;;;;;11.68;3.50;;;;;;;11.53;68.08;99534.44;5058766;28;20551;-50
2023/08/31 05:14:18;;;;;;;8.93;3.17;;;;;;;11.49;67.10;99533.66;5062796;28;20665;-48
2023/08/31 05:16:44;;;;;;;6.88;3.08;;;;;;;11.47;67.86;99532.81;5062094;28;20048;-45
2023/08/31 05:19:11;;;;;;;8.95;3.75;;;;;;;11.41;67.30;99531.16;5062942;28;20040;-47
2023/08/31 05:21:38;;;;;;;9.20;2.97;;;;;;;11.39;67.03;99529.47;5061408;28;20044;-46
2023/08/31 05:24:05;;;;;;;6.32;3.28;;;;;;;11.37;67.80;99523.44;5064032;28;20060;-46
2023/08/31 05:26:32;;;;;;;9.27;4.07;;;;;;;11.35;67.19;99525.22;5055991;28;20431;-46
2023/08/31 05:28:58;;;;;;;6.43;3.45;;;;;;;11.34;66.93;99526.09;5059539;28;20114;-48
2023/08/31 05:31:25;;;;;;;7.65;3.38;;;;;;;11.34;67.36;99531.28;5062312;28;20047;-48
2023/08/31 05:33:52;;;;;;;11.75;3.90;;;;;;;11.32;68.05;99532.13;5063322;28;20032;-47
2023/08/31 05:36:19;;;;;;;7.80;3.22;;;;;;;11.31;67.20;99530.44;5067781;28;20568;-48
2023/08/31 05:38:46;;;;;;;7.80;3.30;;;;;;;11.31;68.17;99533.03;5060848;28;20129;-48
2023/08/31 05:41:12;;;;;;;9.75;2.92;;;;;;;11.32;67.95;99532.13;5064719;28;20049;-46
2023/08/31 05:43:40;;;;;;;8.68;3.60;;;;;;;11.35;66.97;99525.22;5059889;28;20405;-47
2023/08/31 05:46:08;;;;;;;12.18;3.92;;;;;;;11.35;67.55;99522.63;5064463;28;20060;-47
2023/08/31 05:48:36;;;;;;;10.25;3.47;;;;;;;11.36;68.21;99522.59;5059787;28;20052;-47
2023/08/31 05:51:03;;;;;;;6.78;3.38;;;;;;;11.37;67.19;99528.63;5068721;28;20131;-47
2023/08/31 05:53:30;;;;;;;9.20;3.17;;;;;;;11.38;67.14;99531.19;5061777;28;20135;-47
2023/08/31 05:56:06;;;;;;;10.57;4.22;;;;;;;11.39;68.52;99527.72;5064019;28;20049;-47
2023/08/31 05:58:36;;;;;;;8.05;3.33;;;;;;;11.40;67.35;99533.78;5065844;28;20177;-49
2023/08/31 06:01:04;;;;;;;10.65;3.55;;;;;;;11.42;67.75;99532.03;5065027;28;20049;-46
2023/08/31 06:03:31;;;;;;;12.23;4.05;;;;;;;11.43;67.44;99532.00;5058420;28;20041;-45
2023/08/31 06:05:59;;;;;;;6.88;3.22;;;;;;;11.47;68.14;99539.72;5064783;28;20048;-44
2023/08/31 06:08:26;;;;;;;12.60;3.55;;;;;;;11.49;67.21;99544.03;5064591;28;20090;-45
2023/08/31 06:10:52;;;;;;;10.90;3.72;;;;;;;11.52;67.55;99533.59;5059686;28;20067;-48
2023/08/31 06:13:19;;;;;;;9.88;3.80;;;;;;;11.56;67.21;99535.25;5060881;28;20136;-46
2023/08/31 06:15:46;;;;;;;7.75;4.13;;;;;;;11.62;67.62;99541.25;5063176;28;20068;-46
2023/08/31 06:18:13;;;;;;;8.82;3.85;;;;;;;11.67;67.53;99548.06;5063441;28;20056;-47
2023/08/31 06:20:40;;;;;;;9.02;3.20;;;;;;;11.76;67.47;99549.66;5064313;28;20048;-47
2023/08/31 06:23:07;;;;;;;8.48;3.60;;;;;;;11.87;68.72;99548.63;5065198;28;20048;-45
2023/08/31 06:25:33;;;;;;;8.25;3.67;;;;;;;11.98;68.47;99551.91;5061621;28;20481;-49
2023/08/31 06:28:00;;;;;;;9.70;3.83;;;;;;;12.12;68.86;99553.47;5066741;28;20109;-45
2023/08/31 06:30:27;;;;;;;7.50;3.63;;;;;;;12.27;68.60;99553.19;5067124;28;20044;-46
2023/08/31 06:32:53;;;;;;;11.77;4.05;;;;;;;12.44;68.04;99552.91;5068765;28;20037;-46
2023/08/31 06:35:20;;;;;;;8.20;3.35;;;;;;;12.59;68.84;99562.13;5069355;28;20048;-47
2023/08/31 06:37:47;;;;;;;7.75;2.85;;;;;;;12.73;69.31;99555.78;5070797;28;20051;-44
2023/08/31 06:40:14;;;;;;;6.60;3.15;;;;;;;12.87;68.02;99562.47;5066260;28;20102;-46
2023/08/31 06:42:41;;;;;;;9.68;3.55;;;;;;;12.97;68.67;99558.81;5063414;28;20083;-47
2023/08/31 06:45:08;;;;;;;11.93;3.30;;;;;;;13.05;68.34;99556.03;5063052;28;20082;-45
2023/08/31 06:47:35;;;;;;;7.82;3.40;;;;;;;13.10;68.00;99552.47;5058772;28;20584;-47
2023/08/31 06:50:03;;;;;;;13.00;3.97;;;;;;;13.15;67.83;99554.09;5065338;28;20048;-47
2023/08/31 06:52:30;;;;;;;10.52;3.45;;;;;;;13.16;67.75;99548.00;5070178;28;20044;-48
2023/08/31 06:54:58;;;;;;;6.53;3.08;;;;;;;13.20;68.37;99544.44;5064609;28;20048;-48
2023/08/31 06:57:27;;;;;;;8.43;3.22;;;;;;;13.21;68.58;99543.59;5063679;28;20048;-50
2023/08/31 06:59:54;;;;;;;7.47;3.33;;;;;;;13.20;68.31;99554.84;5063701;28;20595;-46
2023/08/31 07:02:24;;;;;;;11.98;3.42;;;;;;;13.21;68.76;99562.63;5063124;28;20048;-48
2023/08/31 07:04:52;;;;;;;8.32;3.15;;;;;;;13.21;68.52;99567.81;5059337;28;20733;-47
2023/08/31 07:07:19;;;;;;;7.25;3.13;;;;;;;13.23;67.81;99560.00;5065567;28;20132;-49
2023/08/31 07:09:47;;;;;;;9.75;3.58;;;;;;;13.27;68.59;99561.63;5063338;28;20052;-46
2023/08/31 07:12:14;;;;;;;8.10;3.28;;;;;;;13.31;68.17;99562.44;5062798;28;20052;-48
2023/08/31 07:14:41;;;;;;;8.23;3.45;;;;;;;13.36;68.62;99560.59;5066055;28;20080;-47
2023/08/31 07:17:08;;;;;;;10.90;3.60;;;;;;;13.44;68.49;99568.22;5066683;28;20098;-47
2023/08/31 07:19:37;;;;;;;13.30;3.47;;;;;;;13.52;69.07;99561.13;5066666;28;20063;-46
2023/08/31 07:22:04;;;;;;;10.68;3.67;;;;;;;13.59;68.50;99559.25;5062948;28;20552;-47
2023/08/31 07:24:31;;;;;;;14.15;3.97;;;;;;;13.68;68.11;99563.38;5065719;28;20048;-46
2023/08/31 07:26:58;;;;;;;14.02;4.40;;;;;;;13.77;68.56;99568.34;5062715;28;20059;-49
2023/08/31 07:29:24;;;;;;;9.52;3.47;;;;;;;13.86;68.14;99568.16;5061358;28;20053;-51
2023/08/31 07:31:51;;;;;;;6.60;2.90;;;;;;;13.95;68.12;99568.81;5066867;28;20060;-45
2023/08/31 07:34:18;;;;;;;9.38;3.65;;;;;;;14.03;68.17;99566.00;5065940;28;20413;-45
2023/08/31 07:36:44;;;;;;;6.68;3.50;;;;;;;14.10;67.98;99559.75;5069519;28;20052;-48
2023/08/31 07:39:12;;;;;;;9.70;3.83;;;;;;;14.18;68.61;99560.41;5065728;28;20036;-46
2023/08/31 07:41:39;;;;;;;7.18;3.45;;;;;;;14.26;68.48;99565.44;5067075;28;20131;-47
2023/08/31 07:44:06;;;;;;;6.97;3.38;;;;;;;14.34;68.28;99566.09;5063266;28;20430;-47
2023/08/31 07:46:32;;;;;;;9.57;3.80;;;;;;;14.44;68.28;99563.25;5082326;28;20059;-45
2023/08/31 07:48:59;;;;;;;9.20;3.60;;;;;;;14.53;67.98;99555.19;5063433;28;20044;-46
2023/08/31 07:51:26;;;;;;;9.98;3.97;;;;;;;14.65;68.52;99560.06;5064888;28;20048;-46
2023/08/31 07:53:52;;;;;;;11.60;3.70;;;;;;;14.76;68.44;99558.91;5067504;28;20158;-47
2023/08/31 07:56:19;;;;;;;9.93;3.72;;;;;;;14.87;67.96;99559.50;5066612;28;20048;-48
2023/08/31 07:58:46;;;;;;;9.60;3.45;;;;;;;14.97;68.16;99549.66;5062833;28;20055;-47
2023/08/31 08:01:13;;;;;;;8.82;3.10;;;;;;;15.06;68.15;99552.91;5066212;28;20094;-47
2023/08/31 08:03:39;;;;;;;14.27;3.45;;;;;;;15.14;67.69;99551.75;5065889;28;20068;-45
2023/08/31 08:06:06;;;;;;;11.65;3.55;;;;;;;15.22;67.57;99545.44;5064306;28;20045;-49
2023/08/31 08:08:33;;;;;;;10.65;3.53;;;;;;;15.27;67.92;99556.63;5066627;28;20106;-46
2023/08/31 08:11:00;;;;;;;16.58;4.00;;;;;;;15.31;67.31;99555.63;5065920;28;20052;-47
2023/08/31 08:13:26;;;;;;;20.33;3.80;;;;;;;15.36;67.43;99551.13;5061520;28;20047;-44
2023/08/31 08:15:53;;;;;;;9.75;3.20;;;;;;;15.45;67.40;99559.56;5062651;28;20043;-46
2023/08/31 08:18:21;;;;;;;9.93;3.65;;;;;;;15.53;67.28;99557.56;5061064;28;20048;-48
2023/08/31 08:20:51;;;;;;;10.15;3.25;;;;;;;15.62;67.62;99567.72;5061001;28;20044;-49
2023/08/31 08:23:17;;;;;;;10.50;3.40;;;;;;;15.68;67.21;99561.47;5068580;28;20060;-43
2023/08/31 08:25:44;;;;;;;14.55;3.42;;;;;;;15.75;66.97;99564.72;5061977;28;20049;-48
2023/08/31 08:28:11;;;;;;;8.80;3.58;;;;;;;15.85;67.29;99566.16;5059189;28;20466;-48
2023/08/31 08:30:37;;;;;;;9.85;3.50;;;;;;;15.98;67.35;99568.38;5057103;28;20496;-46
2023/08/31 08:33:04;;;;;;;6.90;3.45;;;;;;;16.10;66.67;99572.31;5064955;28;20074;-49
2023/08/31 08:35:31;;;;;;;9.07;3.00;;;;;;;16.21;66.83;99569.38;5065880;28;20044;-49
2023/08/31 08:37:58;;;;;;;7.13;3.10;;;;;;;16.33;66.77;99568.94;5066571;28;20052;-49
2023/08/31 08:40:25;;;;;;;6.90;2.42;;;;;;;16.43;66.29;99574.72;5065821;28;20138;-47
2023/08/31 08:42:54;;;;;;;5.97;2.22;;;;;;;16.52;65.81;99573.53;5062448;28;20493;-46
2023/08/31 08:45:25;;;;;;;4.20;2.05;;;;;;;16.65;65.85;99572.19;5061250;28;20040;-46
2023/08/31 08:47:54;;;;;;;4.68;1.88;;;;;;;16.79;66.48;99582.16;5065881;28;20050;-46
2023/08/31 08:50:23;;;;;;;6.30;2.28;;;;;;;16.95;65.62;99582.44;5064563;28;20045;-50
2023/08/31 08:52:50;;;;;;;6.22;2.72;;;;;;;17.11;65.91;99579.28;5063408;28;20127;-45
2023/08/31 08:55:19;;;;;;;5.63;2.20;;;;;;;17.25;65.18;99577.94;5065704;28;20049;-47
2023/08/31 08:57:45;;;;;;;7.85;2.38;;;;;;;17.34;65.59;99574.94;5064477;28;20040;-46
2023/08/31 09:00:12;;;;;;;6.97;1.83;;;;;;;17.46;64.62;99581.47;5064962;28;20040;-45
2023/08/31 09:02:40;;;;;;;5.82;2.22;;;;;;;17.62;64.88;99581.72;5064363;28;20052;-46
2023/08/31 09:05:07;;;;;;;7.85;2.70;;;;;;;17.84;64.84;99584.31;5068014;28;20123;-46
2023/08/31 09:07:36;;;;;;;6.95;2.10;;;;;;;18.05;64.26;99580.91;5065009;28;20110;-49
2023/08/31 09:10:04;;;;;;;6.05;2.42;;;;;;;18.28;64.05;99566.00;5062985;28;20048;-48
2023/08/31 09:12:31;;;;;;;6.95;1.60;;;;;;;18.49;63.89;99554.59;5065462;28;20052;-47
2023/08/31 09:17:41;;;;;;;3.30;1.20;;;;;;;19.13;62.70;99558.81;5095548;27;20175;-47
2023/08/31 09:20:09;;;;;;;4.38;0.95;;;;;;;19.38;61.49;99561.13;5053761;28;20048;-50
2023/08/31 09:22:36;;;;;;;4.88;1.65;;;;;;;19.53;61.28;99559.53;5059821;28;20056;-47
2023/08/31 09:25:08;;;;;;;4.20;1.17;;;;;;;19.61;61.33;99551.31;5058175;28;20127;-46
2023/08/31 09:27:40;;;;;;;3.45;1.35;;;;;;;19.66;59.91;99553.72;5065459;28;20048;-48
2023/08/31 09:30:07;;;;;;;5.70;0.75;;;;;;;19.66;59.63;99556.34;5050248;28;20065;-45
2023/08/31 09:32:34;;;;;;;3.00;1.02;;;;;;;19.69;59.75;99550.91;5060053;28;20064;-50
2023/08/31 09:35:03;;;;;;;4.22;1.02;;;;;;;19.85;59.33;99547.53;5054682;28;20079;-47
2023/08/31 09:37:54;;;;;;;;;;;;;;;19.95;59.46;99548.78;5058964;28;20417;-49
2023/08/31 09:40:21;;;;;;;4.30;1.17;;;;;;;19.97;58.50;99544.31;5054499;28;19928;-47
2023/08/31 09:42:50;;;;;;;2.28;1.08;;;;;;;20.05;58.98;99536.06;5057760;28;20098;-50
2023/08/31 09:45:25;;;;;;;4.13;0.95;;;;;;;20.13;58.24;99535.69;5055181;28;20526;-48
2023/08/31 09:48:11;;;;;;;4.75;1.60;;;;;;;20.29;58.52;99543.63;5053173;28;20543;-52
2023/08/31 09:50:38;;;;;;;3.95;0.80;;;;;;;20.41;58.33;99539.53;5052116;28;20131;-52
2023/08/31 09:53:09;;;;;;;4.55;1.30;;;;;;;20.45;57.24;99534.94;5058799;28;20048;-47
2023/08/31 09:55:39;;;;;;;2.38;0.90;;;;;;;20.50;57.17;99539.03;5055330;28;20049;-49
2023/08/31 09:58:08;;;;;;;2.30;0.77;;;;;;;20.68;57.39;99536.38;5049672;28;20077;-48
2023/08/31 10:00:43;;;;;;;3.90;1.02;;;;;;;21.00;57.02;99536.44;5038930;28;20067;-51
2023/08/31 10:03:15;;;;;;;5.00;0.95;;;;;;;21.25;55.94;99535.09;5037312;28;20049;-51
2023/08/31 10:05:47;;;;;;;3.72;1.25;;;;;;;21.46;55.84;99532.19;5038926;28;20072;-50
2023/08/31 10:08:15;;;;;;;3.22;1.13;;;;;;;21.68;56.06;99536.19;5029301;28;20100;-48
2023/08/31 10:10:43;;;;;;;1.77;0.70;;;;;;;21.96;55.61;99539.94;5035725;28;20139;-48
2023/08/31 10:13:11;;;;;;;3.25;1.17;;;;;;;22.27;54.86;99538.09;5038287;28;20049;-49
2023/08/31 10:15:41;;;;;;;4.18;0.90;;;;;;;22.41;54.21;99541.69;5040756;28;20054;-54
2023/08/31 10:18:08;;;;;;;5.90;1.48;;;;;;;22.41;52.67;99542.53;5040062;28;20094;-54
2023/08/31 10:20:35;;;;;;;3.97;1.17;;;;;;;22.39;53.10;99540.94;5038193;28;20137;-51
2023/08/31 10:23:04;;;;;;;4.93;1.75;;;;;;;22.44;52.94;99545.00;5040568;28;20041;-48
2023/08/31 10:28:28;;;;;;;3.92;1.30;;;;;;;22.58;52.54;99540.69;5020782;28;20756;-46
2023/08/31 10:31:04;;;;;;;7.50;1.60;;;;;;;22.52;52.73;99541.88;5001966;28;20046;-47
2023/08/31 10:33:52;;;;;;;2.30;1.17;;;;;;;22.44;51.94;99539.72;5000363;28;20053;-52
2023/08/31 10:36:20;;;;;;;5.18;1.80;;;;;;;22.36;52.29;99534.06;4998375;28;20057;-49
2023/08/31 10:39:00;;;;;;;3.35;1.95;;;;;;;22.36;52.69;99535.84;5007605;28;20062;-46
2023/08/31 10:41:35;;;;;;;3.25;1.38;;;;;;;22.27;51.18;99535.47;4999349;28;20050;-49
2023/08/31 10:44:19;;;;;;;2.92;1.20;;;;;;;22.17;51.79;99531.66;5000023;28;20085;-50
2023/08/31 10:46:47;;;;;;;4.00;1.00;;;;;;;22.19;52.12;99543.00;5012252;28;20042;-46
2023/08/31 10:49:17;;;;;;;5.50;1.20;;;;;;;22.24;52.10;99538.28;4974393;28;20309;-51
2023/08/31 10:51:45;;;;;;;3.88;1.67;;;;;;;22.23;51.41;99536.59;4980442;28;20047;-50
2023/08/31 10:54:23;;;;;;;3.13;1.00;;;;;;;22.15;51.26;99538.84;4991520;28;20162;-51
2023/08/31 11:02:42;;;;;;;3.95;0.90;;;;;;;22.16;51.59;99524.72;5047668;27;20737;-50
2023/08/31 11:07:47;;;;;;;3.08;0.80;;;;;;;22.21;51.17;99517.34;5042506;28;20385;-48
2023/08/31 11:12:54;;;;;;;4.03;1.45;;;;;;;22.28;51.21;99518.69;5025243;27;20907;-50
2023/08/31 11:15:24;;;;;;;2.83;1.08;;;;;;;22.32;50.79;99520.19;5006216;28;20050;-49
2023/08/31 11:17:51;;;;;;;5.00;0.90;;;;;;;22.33;50.71;99521.88;4998934;28;20566;-48
2023/08/31 11:20:21;;;;;;;2.85;0.50;;;;;;;22.34;50.54;99522.75;5003284;28;20499;-49
2023/08/31 11:22:52;;;;;;;2.70;0.57;;;;;;;22.25;50.37;99521.50;5008759;28;20073;-51
2023/08/31 11:25:23;;;;;;;5.22;0.80;;;;;;;22.13;50.02;99523.09;5057795;28;20881;-47
2023/08/31 11:28:00;;;;;;;1.67;0.70;;;;;;;21.96;49.20;99519.66;5014952;28;20077;-48
2023/08/31 11:30:31;;;;;;;3.33;0.82;;;;;;;21.86;50.35;99507.13;5020023;28;20053;-52
2023/08/31 11:33:04;;;;;;;3.58;0.75;;;;;;;21.80;49.78;99519.75;5019427;28;20066;-50
2023/08/31 11:35:35;;;;;;;2.05;0.80;;;;;;;21.73;50.22;99523.63;5027886;28;20103;-49
2023/08/31 11:38:04;;;;;;;1.30;0.65;;;;;;;21.69;49.72;99511.56;5028926;28;20079;-49
2023/08/31 11:40:31;;;;;;;2.25;0.73;;;;;;;21.66;50.33;99506.47;5023452;28;20049;-48
2023/08/31 11:43:00;;;;;;;4.70;0.75;;;;;;;21.66;50.68;99503.84;5022688;28;20050;-48
2023/08/31 11:45:28;;;;;;;1.98;0.95;;;;;;;21.66;50.61;99495.94;5021644;28;20050;-49
2023/08/31 11:47:56;;;;;;;4.43;1.17;;;;;;;21.63;50.16;99504.00;5023546;28;20053;-52
2023/08/31 11:50:24;;;;;;;3.72;1.15;;;;;;;21.64;50.46;99498.66;5021018;28;20095;-50
2023/08/31 11:52:53;;;;;;;2.53;0.82;;;;;;;21.69;50.78;99501.03;5021588;28;20127;-50
2023/08/31 11:55:20;;;;;;;1.95;1.20;;;;;;;21.74;50.13;99506.91;5021483;28;20064;-49
2023/08/31 11:57:49;;;;;;;2.47;0.93;;;;;;;21.79;50.01;99501.38;5023859;28;20050;-49
2023/08/31 12:00:19;;;;;;;1.77;1.08;;;;;;;21.86;50.50;99501.84;5021690;28;20049;-47
2023/08/31 12:02:56;;;;;;;2.25;1.02;;;;;;;21.88;49.91;99500.81;5025780;28;20077;-52